sensor_id;sensor_type;location;lat;lon;timestamp;P1;durP1;ratioP1;P2;durP2;ratioP2
34928;SDS011;21133;48.048;7.724;2022-12-29T00:01:59;1.00;;;1.00;;
34928;SDS011;21133;48.048;7.724;2022-12-29T00:04:25;0.80;;;0.80;;
34928;SDS011;21133;48.048;7.724;2022-12-29T00:06:51;1.90;;;0.80;;
34928;SDS011;21133;48.048;7.724;2022-12-29T00:09:18;0.97;;;0.93;;
34928;SDS011;21133;48.048;7.724;2022-12-29T00:11:44;1.23;;;1.13;;
34928;SDS011;21133;48.048;7.724;2022-12-29T00:14:10;0.83;;;0.80;;
34928;SDS011;21133;48.048;7.724;2022-12-29T00:16:54;0.80;;;0.80;;
34928;SDS011;21133;48.048;7.724;2022-12-29T00:19:20;0.83;;;0.70;;
34928;SDS011;21133;48.048;7.724;2022-12-29T00:22:05;3.20;;;0.67;;
34928;SDS011;21133;48.048;7.724;2022-12-29T00:24:50;1.73;;;0.80;;
34928;SDS011;21133;48.048;7.724;2022-12-29T00:27:25;0.80;;;0.80;;
34928;SDS011;21133;48.048;7.724;2022-12-29T00:30:10;0.80;;;0.80;;
34928;SDS011;21133;48.048;7.724;2022-12-29T00:32:55;0.77;;;0.77;;
34928;SDS011;21133;48.048;7.724;2022-12-29T00:35:53;6.70;;;1.03;;
34928;SDS011;21133;48.048;7.724;2022-12-29T00:38:20;0.60;;;0.60;;
34928;SDS011;21133;48.048;7.724;2022-12-29T00:41:05;0.70;;;0.70;;
34928;SDS011;21133;48.048;7.724;2022-12-29T00:43:50;0.60;;;0.60;;
34928;SDS011;21133;48.048;7.724;2022-12-29T00:46:32;0.50;;;0.50;;
34928;SDS011;21133;48.048;7.724;2022-12-29T00:48:58;0.50;;;0.50;;
34928;SDS011;21133;48.048;7.724;2022-12-29T00:51:43;3.57;;;0.60;;
34928;SDS011;21133;48.048;7.724;2022-12-29T00:54:09;0.83;;;0.83;;
34928;SDS011;21133;48.048;7.724;2022-12-29T00:56:35;0.73;;;0.50;;
34928;SDS011;21133;48.048;7.724;2022-12-29T00:59:01;0.70;;;0.50;;
34928;SDS011;21133;48.048;7.724;2022-12-29T01:01:27;0.40;;;0.40;;
34928;SDS011;21133;48.048;7.724;2022-12-29T01:03:53;0.50;;;0.50;;
34928;SDS011;21133;48.048;7.724;2022-12-29T01:06:19;1.10;;;0.70;;
34928;SDS011;21133;48.048;7.724;2022-12-29T01:08:45;3.33;;;2.93;;
34928;SDS011;21133;48.048;7.724;2022-12-29T01:11:31;0.77;;;0.77;;
34928;SDS011;21133;48.048;7.724;2022-12-29T01:13:57;3.40;;;0.77;;
34928;SDS011;21133;48.048;7.724;2022-12-29T01:16:23;1.00;;;0.70;;
34928;SDS011;21133;48.048;7.724;2022-12-29T01:18:49;0.50;;;0.50;;
34928;SDS011;21133;48.048;7.724;2022-12-29T01:21:15;0.77;;;0.50;;
34928;SDS011;21133;48.048;7.724;2022-12-29T01:23:41;0.87;;;0.53;;
34928;SDS011;21133;48.048;7.724;2022-12-29T01:26:08;0.80;;;0.80;;
34928;SDS011;21133;48.048;7.724;2022-12-29T01:28:34;0.60;;;0.60;;
34928;SDS011;21133;48.048;7.724;2022-12-29T01:31:00;0.60;;;0.60;;
34928;SDS011;21133;48.048;7.724;2022-12-29T01:33:27;3.03;;;0.70;;
34928;SDS011;21133;48.048;7.724;2022-12-29T01:35:53;0.97;;;0.97;;
34928;SDS011;21133;48.048;7.724;2022-12-29T01:38:19;2.77;;;1.23;;
34928;SDS011;21133;48.048;7.724;2022-12-29T01:40:45;4.93;;;0.90;;
34928;SDS011;21133;48.048;7.724;2022-12-29T01:43:12;0.80;;;0.70;;
34928;SDS011;21133;48.048;7.724;2022-12-29T01:45:42;2.40;;;0.97;;
34928;SDS011;21133;48.048;7.724;2022-12-29T01:48:09;0.57;;;0.57;;
34928;SDS011;21133;48.048;7.724;2022-12-29T01:50:37;1.13;;;0.87;;
34928;SDS011;21133;48.048;7.724;2022-12-29T01:53:16;1.40;;;0.87;;
34928;SDS011;21133;48.048;7.724;2022-12-29T01:55:46;0.70;;;0.70;;
34928;SDS011;21133;48.048;7.724;2022-12-29T01:58:13;0.80;;;0.80;;
34928;SDS011;21133;48.048;7.724;2022-12-29T02:00:40;0.80;;;0.80;;
34928;SDS011;21133;48.048;7.724;2022-12-29T02:03:06;4.53;;;0.80;;
34928;SDS011;21133;48.048;7.724;2022-12-29T02:05:34;0.80;;;0.80;;
34928;SDS011;21133;48.048;7.724;2022-12-29T02:08:03;2.47;;;0.70;;
34928;SDS011;21133;48.048;7.724;2022-12-29T02:10:30;0.93;;;0.60;;
34928;SDS011;21133;48.048;7.724;2022-12-29T02:12:57;0.93;;;0.93;;
34928;SDS011;21133;48.048;7.724;2022-12-29T02:15:26;1.33;;;0.60;;
34928;SDS011;21133;48.048;7.724;2022-12-29T02:18:06;4.53;;;0.70;;
34928;SDS011;21133;48.048;7.724;2022-12-29T02:31:30;2.10;;;1.23;;
34928;SDS011;21133;48.048;7.724;2022-12-29T02:38:48;3.47;;;0.90;;
34928;SDS011;21133;48.048;7.724;2022-12-29T02:41:22;0.87;;;0.87;;
34928;SDS011;21133;48.048;7.724;2022-12-29T02:43:51;0.90;;;0.90;;
34928;SDS011;21133;48.048;7.724;2022-12-29T02:46:23;0.90;;;0.90;;
34928;SDS011;21133;48.048;7.724;2022-12-29T02:49:01;0.90;;;0.90;;
34928;SDS011;21133;48.048;7.724;2022-12-29T02:51:32;1.03;;;0.80;;
34928;SDS011;21133;48.048;7.724;2022-12-29T02:54:00;0.80;;;0.80;;
34928;SDS011;21133;48.048;7.724;2022-12-29T02:56:45;0.70;;;0.70;;
34928;SDS011;21133;48.048;7.724;2022-12-29T02:59:11;0.60;;;0.60;;
34928;SDS011;21133;48.048;7.724;2022-12-29T03:02:03;1.07;;;1.07;;
34928;SDS011;21133;48.048;7.724;2022-12-29T03:04:46;0.70;;;0.70;;
34928;SDS011;21133;48.048;7.724;2022-12-29T03:12:46;0.50;;;0.50;;
34928;SDS011;21133;48.048;7.724;2022-12-29T03:15:34;1.07;;;1.07;;
34928;SDS011;21133;48.048;7.724;2022-12-29T03:18:20;0.67;;;0.67;;
34928;SDS011;21133;48.048;7.724;2022-12-29T03:23:37;0.83;;;0.80;;
34928;SDS011;21133;48.048;7.724;2022-12-29T03:26:05;6.50;;;1.20;;
34928;SDS011;21133;48.048;7.724;2022-12-29T03:28:36;3.60;;;1.20;;
34928;SDS011;21133;48.048;7.724;2022-12-29T03:31:04;1.07;;;1.07;;
34928;SDS011;21133;48.048;7.724;2022-12-29T03:33:32;0.80;;;0.80;;
34928;SDS011;21133;48.048;7.724;2022-12-29T03:35:59;0.80;;;0.80;;
34928;SDS011;21133;48.048;7.724;2022-12-29T03:38:47;0.90;;;0.90;;
34928;SDS011;21133;48.048;7.724;2022-12-29T03:41:14;0.93;;;0.93;;
34928;SDS011;21133;48.048;7.724;2022-12-29T03:43:41;2.23;;;0.90;;
34928;SDS011;21133;48.048;7.724;2022-12-29T03:46:08;4.10;;;1.00;;
34928;SDS011;21133;48.048;7.724;2022-12-29T03:48:34;1.80;;;0.80;;
34928;SDS011;21133;48.048;7.724;2022-12-29T03:50:59;1.30;;;1.23;;
34928;SDS011;21133;48.048;7.724;2022-12-29T03:53:25;1.00;;;0.97;;
34928;SDS011;21133;48.048;7.724;2022-12-29T03:55:51;0.90;;;0.90;;
34928;SDS011;21133;48.048;7.724;2022-12-29T03:58:17;0.87;;;0.80;;
34928;SDS011;21133;48.048;7.724;2022-12-29T04:00:43;0.80;;;0.80;;
34928;SDS011;21133;48.048;7.724;2022-12-29T04:03:09;4.33;;;1.10;;
34928;SDS011;21133;48.048;7.724;2022-12-29T04:05:35;3.80;;;1.00;;
34928;SDS011;21133;48.048;7.724;2022-12-29T04:08:01;1.40;;;0.80;;
34928;SDS011;21133;48.048;7.724;2022-12-29T04:10:27;2.00;;;2.00;;
34928;SDS011;21133;48.048;7.724;2022-12-29T04:12:53;1.33;;;1.10;;
34928;SDS011;21133;48.048;7.724;2022-12-29T04:15:19;0.83;;;0.83;;
34928;SDS011;21133;48.048;7.724;2022-12-29T04:17:45;1.00;;;1.00;;
34928;SDS011;21133;48.048;7.724;2022-12-29T04:20:11;2.10;;;1.00;;
34928;SDS011;21133;48.048;7.724;2022-12-29T04:22:59;4.63;;;1.63;;
34928;SDS011;21133;48.048;7.724;2022-12-29T04:25:25;1.57;;;1.00;;
34928;SDS011;21133;48.048;7.724;2022-12-29T04:27:51;8.97;;;1.23;;
34928;SDS011;21133;48.048;7.724;2022-12-29T04:30:17;1.30;;;0.70;;
34928;SDS011;21133;48.048;7.724;2022-12-29T04:32:43;1.00;;;1.00;;
34928;SDS011;21133;48.048;7.724;2022-12-29T04:35:09;0.90;;;0.90;;
34928;SDS011;21133;48.048;7.724;2022-12-29T04:37:35;1.00;;;1.00;;
34928;SDS011;21133;48.048;7.724;2022-12-29T04:40:01;0.97;;;0.97;;
34928;SDS011;21133;48.048;7.724;2022-12-29T04:42:27;2.43;;;1.00;;
34928;SDS011;21133;48.048;7.724;2022-12-29T04:44:53;1.00;;;1.00;;
34928;SDS011;21133;48.048;7.724;2022-12-29T04:47:19;2.60;;;1.00;;
34928;SDS011;21133;48.048;7.724;2022-12-29T04:49:45;1.40;;;1.40;;
34928;SDS011;21133;48.048;7.724;2022-12-29T04:52:11;1.37;;;1.30;;
34928;SDS011;21133;48.048;7.724;2022-12-29T04:54:37;1.03;;;1.03;;
34928;SDS011;21133;48.048;7.724;2022-12-29T04:57:03;1.43;;;1.43;;
34928;SDS011;21133;48.048;7.724;2022-12-29T04:59:29;2.60;;;1.47;;
34928;SDS011;21133;48.048;7.724;2022-12-29T05:01:55;1.70;;;1.30;;
34928;SDS011;21133;48.048;7.724;2022-12-29T05:04:21;3.70;;;1.00;;
34928;SDS011;21133;48.048;7.724;2022-12-29T05:06:47;1.10;;;1.10;;
34928;SDS011;21133;48.048;7.724;2022-12-29T05:09:13;2.50;;;1.37;;
34928;SDS011;21133;48.048;7.724;2022-12-29T05:11:39;1.73;;;0.90;;
34928;SDS011;21133;48.048;7.724;2022-12-29T05:14:05;2.20;;;1.10;;
34928;SDS011;21133;48.048;7.724;2022-12-29T05:16:31;1.37;;;1.27;;
34928;SDS011;21133;48.048;7.724;2022-12-29T05:18:57;6.20;;;1.60;;
34928;SDS011;21133;48.048;7.724;2022-12-29T05:21:23;6.80;;;1.30;;
34928;SDS011;21133;48.048;7.724;2022-12-29T05:23:49;1.30;;;1.20;;
34928;SDS011;21133;48.048;7.724;2022-12-29T05:26:14;1.10;;;1.10;;
34928;SDS011;21133;48.048;7.724;2022-12-29T05:28:40;1.20;;;1.10;;
34928;SDS011;21133;48.048;7.724;2022-12-29T05:31:06;0.90;;;0.90;;
34928;SDS011;21133;48.048;7.724;2022-12-29T05:33:32;1.70;;;1.10;;
34928;SDS011;21133;48.048;7.724;2022-12-29T05:36:08;6.10;;;1.40;;
34928;SDS011;21133;48.048;7.724;2022-12-29T05:38:34;1.03;;;1.03;;
34928;SDS011;21133;48.048;7.724;2022-12-29T05:41:00;0.97;;;0.97;;
34928;SDS011;21133;48.048;7.724;2022-12-29T05:43:26;1.50;;;0.87;;
34928;SDS011;21133;48.048;7.724;2022-12-29T05:45:52;1.10;;;1.10;;
34928;SDS011;21133;48.048;7.724;2022-12-29T05:48:18;1.33;;;1.23;;
34928;SDS011;21133;48.048;7.724;2022-12-29T05:50:48;2.10;;;1.10;;
34928;SDS011;21133;48.048;7.724;2022-12-29T05:53:14;1.57;;;1.27;;
34928;SDS011;21133;48.048;7.724;2022-12-29T05:55:40;1.60;;;1.50;;
34928;SDS011;21133;48.048;7.724;2022-12-29T05:58:06;1.03;;;1.00;;
34928;SDS011;21133;48.048;7.724;2022-12-29T06:00:32;1.50;;;1.40;;
34928;SDS011;21133;48.048;7.724;2022-12-29T06:02:58;1.90;;;1.00;;
34928;SDS011;21133;48.048;7.724;2022-12-29T06:05:24;1.20;;;1.20;;
34928;SDS011;21133;48.048;7.724;2022-12-29T06:07:50;1.53;;;1.43;;
34928;SDS011;21133;48.048;7.724;2022-12-29T06:10:16;7.97;;;1.13;;
34928;SDS011;21133;48.048;7.724;2022-12-29T06:12:42;1.10;;;1.10;;
34928;SDS011;21133;48.048;7.724;2022-12-29T06:15:08;1.30;;;1.30;;
34928;SDS011;21133;48.048;7.724;2022-12-29T06:17:34;1.57;;;1.47;;
34928;SDS011;21133;48.048;7.724;2022-12-29T06:20:01;1.10;;;1.10;;
34928;SDS011;21133;48.048;7.724;2022-12-29T06:22:27;2.87;;;1.00;;
34928;SDS011;21133;48.048;7.724;2022-12-29T06:24:53;1.70;;;1.70;;
34928;SDS011;21133;48.048;7.724;2022-12-29T06:27:19;1.60;;;1.50;;
34928;SDS011;21133;48.048;7.724;2022-12-29T06:29:45;1.23;;;1.10;;
34928;SDS011;21133;48.048;7.724;2022-12-29T06:32:11;1.70;;;1.60;;
34928;SDS011;21133;48.048;7.724;2022-12-29T06:34:37;1.50;;;1.43;;
34928;SDS011;21133;48.048;7.724;2022-12-29T06:37:03;3.33;;;0.90;;
34928;SDS011;21133;48.048;7.724;2022-12-29T06:39:29;0.97;;;0.97;;
34928;SDS011;21133;48.048;7.724;2022-12-29T06:41:55;2.17;;;0.90;;
34928;SDS011;21133;48.048;7.724;2022-12-29T06:44:21;1.27;;;1.10;;
34928;SDS011;21133;48.048;7.724;2022-12-29T06:46:47;2.50;;;1.30;;
34928;SDS011;21133;48.048;7.724;2022-12-29T06:49:13;1.17;;;0.90;;
34928;SDS011;21133;48.048;7.724;2022-12-29T06:51:39;0.97;;;0.97;;
34928;SDS011;21133;48.048;7.724;2022-12-29T06:54:05;0.83;;;0.60;;
34928;SDS011;21133;48.048;7.724;2022-12-29T06:56:31;0.50;;;0.50;;
34928;SDS011;21133;48.048;7.724;2022-12-29T06:58:57;1.80;;;0.80;;
34928;SDS011;21133;48.048;7.724;2022-12-29T07:01:25;0.77;;;0.77;;
34928;SDS011;21133;48.048;7.724;2022-12-29T07:03:51;0.70;;;0.70;;
34928;SDS011;21133;48.048;7.724;2022-12-29T07:06:17;3.93;;;1.10;;
34928;SDS011;21133;48.048;7.724;2022-12-29T07:08:43;2.10;;;0.90;;
34928;SDS011;21133;48.048;7.724;2022-12-29T07:11:09;1.93;;;0.83;;
34928;SDS011;21133;48.048;7.724;2022-12-29T07:13:35;0.90;;;0.90;;
34928;SDS011;21133;48.048;7.724;2022-12-29T07:16:05;1.27;;;1.10;;
34928;SDS011;21133;48.048;7.724;2022-12-29T07:18:32;1.10;;;1.10;;
34928;SDS011;21133;48.048;7.724;2022-12-29T07:20:58;1.00;;;1.00;;
34928;SDS011;21133;48.048;7.724;2022-12-29T07:23:23;3.23;;;1.30;;
34928;SDS011;21133;48.048;7.724;2022-12-29T07:25:49;1.50;;;1.40;;
34928;SDS011;21133;48.048;7.724;2022-12-29T07:28:15;0.80;;;0.80;;
34928;SDS011;21133;48.048;7.724;2022-12-29T07:30:41;1.27;;;1.10;;
34928;SDS011;21133;48.048;7.724;2022-12-29T07:33:07;0.97;;;0.97;;
34928;SDS011;21133;48.048;7.724;2022-12-29T07:35:33;1.43;;;1.43;;
34928;SDS011;21133;48.048;7.724;2022-12-29T07:37:59;1.20;;;0.90;;
34928;SDS011;21133;48.048;7.724;2022-12-29T07:40:25;4.27;;;1.30;;
34928;SDS011;21133;48.048;7.724;2022-12-29T07:42:51;1.10;;;1.10;;
34928;SDS011;21133;48.048;7.724;2022-12-29T07:45:17;2.10;;;1.70;;
34928;SDS011;21133;48.048;7.724;2022-12-29T07:47:46;5.50;;;2.23;;
34928;SDS011;21133;48.048;7.724;2022-12-29T07:50:12;2.80;;;2.17;;
34928;SDS011;21133;48.048;7.724;2022-12-29T07:52:38;2.43;;;1.30;;
34928;SDS011;21133;48.048;7.724;2022-12-29T07:55:04;1.43;;;0.97;;
34928;SDS011;21133;48.048;7.724;2022-12-29T07:57:31;2.97;;;1.40;;
34928;SDS011;21133;48.048;7.724;2022-12-29T07:59:56;5.40;;;1.00;;
34928;SDS011;21133;48.048;7.724;2022-12-29T08:02:22;2.50;;;1.20;;
34928;SDS011;21133;48.048;7.724;2022-12-29T08:04:50;1.60;;;1.60;;
34928;SDS011;21133;48.048;7.724;2022-12-29T08:07:16;2.07;;;1.80;;
34928;SDS011;21133;48.048;7.724;2022-12-29T08:09:43;1.23;;;1.23;;
34928;SDS011;21133;48.048;7.724;2022-12-29T08:12:09;3.63;;;1.80;;
34928;SDS011;21133;48.048;7.724;2022-12-29T08:14:36;2.20;;;1.00;;
34928;SDS011;21133;48.048;7.724;2022-12-29T08:17:02;1.53;;;1.53;;
34928;SDS011;21133;48.048;7.724;2022-12-29T08:19:28;0.80;;;0.80;;
34928;SDS011;21133;48.048;7.724;2022-12-29T08:21:54;1.20;;;1.10;;
34928;SDS011;21133;48.048;7.724;2022-12-29T08:24:20;1.67;;;1.43;;
34928;SDS011;21133;48.048;7.724;2022-12-29T08:26:46;8.83;;;2.23;;
34928;SDS011;21133;48.048;7.724;2022-12-29T08:29:15;5.03;;;2.30;;
34928;SDS011;21133;48.048;7.724;2022-12-29T08:31:44;2.93;;;1.30;;
34928;SDS011;21133;48.048;7.724;2022-12-29T08:34:10;0.70;;;0.70;;
34928;SDS011;21133;48.048;7.724;2022-12-29T08:36:36;1.07;;;1.03;;
34928;SDS011;21133;48.048;7.724;2022-12-29T08:39:02;2.30;;;0.83;;
34928;SDS011;21133;48.048;7.724;2022-12-29T08:41:28;0.90;;;0.90;;
34928;SDS011;21133;48.048;7.724;2022-12-29T08:43:54;1.80;;;0.63;;
34928;SDS011;21133;48.048;7.724;2022-12-29T08:46:20;0.83;;;0.77;;
34928;SDS011;21133;48.048;7.724;2022-12-29T08:48:46;2.93;;;0.97;;
34928;SDS011;21133;48.048;7.724;2022-12-29T08:51:12;0.80;;;0.80;;
34928;SDS011;21133;48.048;7.724;2022-12-29T08:53:39;1.70;;;1.10;;
34928;SDS011;21133;48.048;7.724;2022-12-29T08:56:05;1.37;;;1.27;;
34928;SDS011;21133;48.048;7.724;2022-12-29T08:58:31;1.73;;;1.40;;
34928;SDS011;21133;48.048;7.724;2022-12-29T09:00:57;9.97;;;0.90;;
34928;SDS011;21133;48.048;7.724;2022-12-29T09:03:24;0.70;;;0.70;;
34928;SDS011;21133;48.048;7.724;2022-12-29T09:05:50;1.30;;;1.30;;
34928;SDS011;21133;48.048;7.724;2022-12-29T09:08:16;2.15;;;1.33;;
34928;SDS011;21133;48.048;7.724;2022-12-29T09:10:42;2.13;;;1.93;;
34928;SDS011;21133;48.048;7.724;2022-12-29T09:13:09;3.07;;;0.90;;
34928;SDS011;21133;48.048;7.724;2022-12-29T09:15:35;1.07;;;1.03;;
34928;SDS011;21133;48.048;7.724;2022-12-29T09:18:01;2.60;;;1.00;;
34928;SDS011;21133;48.048;7.724;2022-12-29T09:20:27;2.50;;;1.03;;
34928;SDS011;21133;48.048;7.724;2022-12-29T09:22:52;0.90;;;0.90;;
34928;SDS011;21133;48.048;7.724;2022-12-29T09:25:19;3.03;;;1.00;;
34928;SDS011;21133;48.048;7.724;2022-12-29T09:27:46;2.27;;;1.30;;
34928;SDS011;21133;48.048;7.724;2022-12-29T09:30:12;3.40;;;1.00;;
34928;SDS011;21133;48.048;7.724;2022-12-29T09:32:39;4.17;;;1.30;;
34928;SDS011;21133;48.048;7.724;2022-12-29T09:35:05;6.47;;;1.30;;
34928;SDS011;21133;48.048;7.724;2022-12-29T09:37:31;1.27;;;0.80;;
34928;SDS011;21133;48.048;7.724;2022-12-29T09:39:57;1.00;;;1.00;;
34928;SDS011;21133;48.048;7.724;2022-12-29T09:42:25;1.10;;;1.10;;
34928;SDS011;21133;48.048;7.724;2022-12-29T09:47:21;1.37;;;1.10;;
34928;SDS011;21133;48.048;7.724;2022-12-29T09:49:48;2.20;;;0.90;;
34928;SDS011;21133;48.048;7.724;2022-12-29T09:52:20;1.37;;;1.30;;
34928;SDS011;21133;48.048;7.724;2022-12-29T09:54:57;0.80;;;0.80;;
34928;SDS011;21133;48.048;7.724;2022-12-29T09:57:24;0.80;;;0.80;;
34928;SDS011;21133;48.048;7.724;2022-12-29T09:59:52;1.10;;;1.00;;
34928;SDS011;21133;48.048;7.724;2022-12-29T10:02:23;2.33;;;1.47;;
34928;SDS011;21133;48.048;7.724;2022-12-29T10:04:51;1.07;;;1.07;;
34928;SDS011;21133;48.048;7.724;2022-12-29T10:07:36;1.20;;;1.20;;
34928;SDS011;21133;48.048;7.724;2022-12-29T10:10:12;4.93;;;1.00;;
34928;SDS011;21133;48.048;7.724;2022-12-29T10:22:45;1.50;;;1.40;;
34928;SDS011;21133;48.048;7.724;2022-12-29T10:25:20;2.60;;;1.63;;
34928;SDS011;21133;48.048;7.724;2022-12-29T10:27:48;4.67;;;1.57;;
34928;SDS011;21133;48.048;7.724;2022-12-29T10:30:14;3.67;;;1.37;;
34928;SDS011;21133;48.048;7.724;2022-12-29T10:42:45;1.30;;;1.30;;
34928;SDS011;21133;48.048;7.724;2022-12-29T10:45:12;2.30;;;1.17;;
34928;SDS011;21133;48.048;7.724;2022-12-29T10:47:40;2.47;;;0.97;;
34928;SDS011;21133;48.048;7.724;2022-12-29T10:50:11;0.80;;;0.80;;
34928;SDS011;21133;48.048;7.724;2022-12-29T10:52:38;7.63;;;1.30;;
34928;SDS011;21133;48.048;7.724;2022-12-29T10:55:07;3.17;;;1.33;;
34928;SDS011;21133;48.048;7.724;2022-12-29T10:57:40;5.77;;;1.40;;
34928;SDS011;21133;48.048;7.724;2022-12-29T11:00:15;1.00;;;1.00;;
34928;SDS011;21133;48.048;7.724;2022-12-29T11:05:28;15.53;;;2.90;;
34928;SDS011;21133;48.048;7.724;2022-12-29T11:08:03;1.10;;;1.10;;
34928;SDS011;21133;48.048;7.724;2022-12-29T11:10:34;1.50;;;1.37;;
34928;SDS011;21133;48.048;7.724;2022-12-29T11:13:11;1.83;;;1.70;;
34928;SDS011;21133;48.048;7.724;2022-12-29T11:15:41;1.03;;;0.90;;
34928;SDS011;21133;48.048;7.724;2022-12-29T11:21:04;2.83;;;1.43;;
34928;SDS011;21133;48.048;7.724;2022-12-29T11:26:05;5.50;;;2.07;;
34928;SDS011;21133;48.048;7.724;2022-12-29T11:28:31;1.47;;;0.80;;
34928;SDS011;21133;48.048;7.724;2022-12-29T11:31:01;2.80;;;2.60;;
34928;SDS011;21133;48.048;7.724;2022-12-29T11:33:28;1.10;;;1.10;;
34928;SDS011;21133;48.048;7.724;2022-12-29T11:35:58;3.47;;;3.30;;
34928;SDS011;21133;48.048;7.724;2022-12-29T11:38:26;2.87;;;1.73;;
34928;SDS011;21133;48.048;7.724;2022-12-29T11:40:55;3.90;;;2.60;;
34928;SDS011;21133;48.048;7.724;2022-12-29T11:43:27;13.63;;;9.27;;
34928;SDS011;21133;48.048;7.724;2022-12-29T11:45:56;20.67;;;11.17;;
34928;SDS011;21133;48.048;7.724;2022-12-29T11:48:22;11.40;;;9.10;;
34928;SDS011;21133;48.048;7.724;2022-12-29T11:50:52;18.17;;;11.43;;
34928;SDS011;21133;48.048;7.724;2022-12-29T11:53:23;23.07;;;14.50;;
34928;SDS011;21133;48.048;7.724;2022-12-29T11:55:53;4.13;;;3.90;;
34928;SDS011;21133;48.048;7.724;2022-12-29T11:58:27;20.50;;;12.20;;
34928;SDS011;21133;48.048;7.724;2022-12-29T12:00:53;10.30;;;7.70;;
34928;SDS011;21133;48.048;7.724;2022-12-29T12:03:21;3.37;;;0.97;;
34928;SDS011;21133;48.048;7.724;2022-12-29T12:05:52;4.90;;;2.90;;
34928;SDS011;21133;48.048;7.724;2022-12-29T12:11:04;1.47;;;1.20;;
34928;SDS011;21133;48.048;7.724;2022-12-29T12:16:18;1.47;;;1.47;;
34928;SDS011;21133;48.048;7.724;2022-12-29T12:18:47;1.20;;;1.20;;
34928;SDS011;21133;48.048;7.724;2022-12-29T12:26:30;3.00;;;3.00;;
34928;SDS011;21133;48.048;7.724;2022-12-29T12:34:14;4.63;;;4.23;;
34928;SDS011;21133;48.048;7.724;2022-12-29T12:41:49;2.60;;;2.23;;
34928;SDS011;21133;48.048;7.724;2022-12-29T12:44:24;7.70;;;4.83;;
34928;SDS011;21133;48.048;7.724;2022-12-29T13:02:48;3.97;;;3.67;;
34928;SDS011;21133;48.048;7.724;2022-12-29T13:08:18;6.53;;;3.67;;
34928;SDS011;21133;48.048;7.724;2022-12-29T13:15:55;2.07;;;1.97;;
34928;SDS011;21133;48.048;7.724;2022-12-29T13:18:29;1.27;;;1.27;;
34928;SDS011;21133;48.048;7.724;2022-12-29T13:21:03;4.67;;;1.77;;
34928;SDS011;21133;48.048;7.724;2022-12-29T13:23:47;3.70;;;1.20;;
34928;SDS011;21133;48.048;7.724;2022-12-29T13:26:20;8.50;;;1.80;;
34928;SDS011;21133;48.048;7.724;2022-12-29T13:31:15;8.80;;;5.30;;
34928;SDS011;21133;48.048;7.724;2022-12-29T13:41:29;2.53;;;1.60;;
34928;SDS011;21133;48.048;7.724;2022-12-29T13:43:56;2.20;;;1.50;;
34928;SDS011;21133;48.048;7.724;2022-12-29T13:46:39;5.23;;;3.20;;
34928;SDS011;21133;48.048;7.724;2022-12-29T13:49:17;3.67;;;1.83;;
34928;SDS011;21133;48.048;7.724;2022-12-29T13:51:48;3.47;;;3.27;;
34928;SDS011;21133;48.048;7.724;2022-12-29T13:59:44;7.60;;;2.60;;
34928;SDS011;21133;48.048;7.724;2022-12-29T14:05:00;2.30;;;1.60;;
34928;SDS011;21133;48.048;7.724;2022-12-29T14:07:26;6.20;;;1.80;;
34928;SDS011;21133;48.048;7.724;2022-12-29T14:09:53;1.20;;;1.20;;
34928;SDS011;21133;48.048;7.724;2022-12-29T14:15:28;18.03;;;9.47;;
34928;SDS011;21133;48.048;7.724;2022-12-29T14:18:21;2.10;;;1.53;;
34928;SDS011;21133;48.048;7.724;2022-12-29T14:20:47;6.40;;;2.70;;
34928;SDS011;21133;48.048;7.724;2022-12-29T14:23:16;5.90;;;1.80;;
34928;SDS011;21133;48.048;7.724;2022-12-29T14:28:34;5.80;;;1.93;;
34928;SDS011;21133;48.048;7.724;2022-12-29T14:31:04;5.30;;;3.83;;
34928;SDS011;21133;48.048;7.724;2022-12-29T14:33:31;3.90;;;2.70;;
34928;SDS011;21133;48.048;7.724;2022-12-29T14:36:18;19.13;;;3.30;;
34928;SDS011;21133;48.048;7.724;2022-12-29T14:38:44;4.93;;;4.50;;
34928;SDS011;21133;48.048;7.724;2022-12-29T14:41:27;6.20;;;4.20;;
34928;SDS011;21133;48.048;7.724;2022-12-29T14:44:36;2.50;;;2.37;;
34928;SDS011;21133;48.048;7.724;2022-12-29T14:47:05;1.40;;;1.30;;
34928;SDS011;21133;48.048;7.724;2022-12-29T14:49:31;5.37;;;2.83;;
34928;SDS011;21133;48.048;7.724;2022-12-29T14:52:14;3.67;;;2.90;;
34928;SDS011;21133;48.048;7.724;2022-12-29T14:54:43;1.33;;;1.20;;
34928;SDS011;21133;48.048;7.724;2022-12-29T14:57:15;2.00;;;1.90;;
34928;SDS011;21133;48.048;7.724;2022-12-29T14:59:44;2.80;;;2.20;;
34928;SDS011;21133;48.048;7.724;2022-12-29T15:02:13;1.10;;;1.10;;
34928;SDS011;21133;48.048;7.724;2022-12-29T15:04:40;3.00;;;2.70;;
34928;SDS011;21133;48.048;7.724;2022-12-29T15:07:07;2.27;;;1.23;;
34928;SDS011;21133;48.048;7.724;2022-12-29T15:09:35;2.40;;;2.07;;
34928;SDS011;21133;48.048;7.724;2022-12-29T15:12:13;18.80;;;7.20;;
34928;SDS011;21133;48.048;7.724;2022-12-29T15:14:52;9.47;;;3.77;;
34928;SDS011;21133;48.048;7.724;2022-12-29T15:19:50;15.73;;;7.40;;
34928;SDS011;21133;48.048;7.724;2022-12-29T15:22:16;8.03;;;2.90;;
34928;SDS011;21133;48.048;7.724;2022-12-29T15:24:42;1.10;;;1.10;;
34928;SDS011;21133;48.048;7.724;2022-12-29T15:27:15;4.77;;;1.30;;
34928;SDS011;21133;48.048;7.724;2022-12-29T15:29:42;4.47;;;1.47;;
34928;SDS011;21133;48.048;7.724;2022-12-29T15:34:41;1.27;;;1.27;;
34928;SDS011;21133;48.048;7.724;2022-12-29T15:37:07;6.33;;;4.77;;
34928;SDS011;21133;48.048;7.724;2022-12-29T15:39:34;8.80;;;5.40;;
34928;SDS011;21133;48.048;7.724;2022-12-29T15:42:05;3.40;;;2.20;;
34928;SDS011;21133;48.048;7.724;2022-12-29T15:44:39;1.17;;;1.17;;
34928;SDS011;21133;48.048;7.724;2022-12-29T15:47:19;1.00;;;1.00;;
34928;SDS011;21133;48.048;7.724;2022-12-29T15:49:49;4.40;;;1.10;;
34928;SDS011;21133;48.048;7.724;2022-12-29T15:52:17;2.70;;;1.27;;
34928;SDS011;21133;48.048;7.724;2022-12-29T15:54:43;2.33;;;1.27;;
34928;SDS011;21133;48.048;7.724;2022-12-29T15:57:20;3.10;;;1.20;;
34928;SDS011;21133;48.048;7.724;2022-12-29T15:59:47;2.73;;;0.93;;
34928;SDS011;21133;48.048;7.724;2022-12-29T16:02:13;3.00;;;1.20;;
34928;SDS011;21133;48.048;7.724;2022-12-29T16:04:40;1.27;;;1.27;;
34928;SDS011;21133;48.048;7.724;2022-12-29T16:09:56;1.00;;;1.00;;
34928;SDS011;21133;48.048;7.724;2022-12-29T16:12:26;3.70;;;1.07;;
34928;SDS011;21133;48.048;7.724;2022-12-29T16:14:54;3.90;;;1.63;;
34928;SDS011;21133;48.048;7.724;2022-12-29T16:17:21;1.70;;;1.20;;
34928;SDS011;21133;48.048;7.724;2022-12-29T16:19:52;1.60;;;1.50;;
34928;SDS011;21133;48.048;7.724;2022-12-29T16:22:30;5.97;;;1.53;;
34928;SDS011;21133;48.048;7.724;2022-12-29T16:24:57;1.10;;;1.10;;
34928;SDS011;21133;48.048;7.724;2022-12-29T16:27:40;4.27;;;1.80;;
34928;SDS011;21133;48.048;7.724;2022-12-29T16:30:20;5.00;;;1.03;;
34928;SDS011;21133;48.048;7.724;2022-12-29T16:40:37;1.70;;;1.70;;
34928;SDS011;21133;48.048;7.724;2022-12-29T16:43:19;1.70;;;1.60;;
34928;SDS011;21133;48.048;7.724;2022-12-29T16:50:37;3.83;;;1.10;;
34928;SDS011;21133;48.048;7.724;2022-12-29T16:53:04;6.63;;;1.00;;
34928;SDS011;21133;48.048;7.724;2022-12-29T16:55:30;1.13;;;1.13;;
34928;SDS011;21133;48.048;7.724;2022-12-29T16:57:56;1.30;;;1.20;;
34928;SDS011;21133;48.048;7.724;2022-12-29T17:00:25;2.47;;;1.57;;
34928;SDS011;21133;48.048;7.724;2022-12-29T17:02:52;1.83;;;1.83;;
34928;SDS011;21133;48.048;7.724;2022-12-29T17:05:20;1.67;;;1.67;;
34928;SDS011;21133;48.048;7.724;2022-12-29T17:07:46;1.50;;;1.50;;
34928;SDS011;21133;48.048;7.724;2022-12-29T17:10:12;1.33;;;0.90;;
34928;SDS011;21133;48.048;7.724;2022-12-29T17:12:39;1.20;;;1.13;;
34928;SDS011;21133;48.048;7.724;2022-12-29T17:15:07;1.50;;;0.83;;
34928;SDS011;21133;48.048;7.724;2022-12-29T17:17:42;2.10;;;0.90;;
34928;SDS011;21133;48.048;7.724;2022-12-29T17:22:40;1.27;;;1.27;;
34928;SDS011;21133;48.048;7.724;2022-12-29T17:25:10;0.63;;;0.63;;
34928;SDS011;21133;48.048;7.724;2022-12-29T17:27:47;3.50;;;0.90;;